Udachnyy, Russia
Current Conditions -  °F | °C
As of 12:00 AM on Saturday 25 Oct 2014 (Local Time) from UEEE Reporting Station
Clear Clear  
Wind Chill: -27°   Ceiling: Unl
Heat Index: -15°   Visibility: 6mi
Dew Point: -20°   Wind: 4mph
Humidity: 77%   Direction: 300°WNW
Pressure: 30.06"   Gusts: NA
Location:  66.43°N, 112.4°E
Report Text: UEEE 241500Z 30002MPS CAVOK M26/M29 Q1018 NOSIG RMK QFE75523490150
Loading
Personal Weather Stations






























Interactive Weather Map
Tropical Storm Tracking
New forecast layout! Learn more

10-Day Weather Forecast

Advertisements
Track Severe Weather on mobile